sensor_id;sensor_type;location;lat;lon;timestamp;P1;durP1;ratioP1;P2;durP2;ratioP2
47659;SDS011;33403;43.608;1.458;2022-07-29T00:02:03;2.08;;;1.50;;
47659;SDS011;33403;43.608;1.458;2022-07-29T00:04:29;3.17;;;1.90;;
47659;SDS011;33403;43.608;1.458;2022-07-29T00:06:55;3.42;;;1.67;;
47659;SDS011;33403;43.608;1.458;2022-07-29T00:09:21;2.10;;;1.70;;
47659;SDS011;33403;43.608;1.458;2022-07-29T00:11:47;2.90;;;1.85;;
47659;SDS011;33403;43.608;1.458;2022-07-29T00:14:14;3.15;;;1.60;;
47659;SDS011;33403;43.608;1.458;2022-07-29T00:16:40;2.63;;;1.77;;
47659;SDS011;33403;43.608;1.458;2022-07-29T00:19:06;2.38;;;1.70;;
47659;SDS011;33403;43.608;1.458;2022-07-29T00:21:32;2.30;;;1.85;;
47659;SDS011;33403;43.608;1.458;2022-07-29T00:23:58;2.38;;;1.77;;
47659;SDS011;33403;43.608;1.458;2022-07-29T00:26:24;2.25;;;1.60;;
47659;SDS011;33403;43.608;1.458;2022-07-29T00:28:52;2.65;;;1.80;;
47659;SDS011;33403;43.608;1.458;2022-07-29T00:31:18;2.90;;;1.60;;
47659;SDS011;33403;43.608;1.458;2022-07-29T00:33:44;3.30;;;1.83;;
47659;SDS011;33403;43.608;1.458;2022-07-29T00:36:11;4.57;;;1.77;;
47659;SDS011;33403;43.608;1.458;2022-07-29T00:38:37;3.85;;;1.90;;
47659;SDS011;33403;43.608;1.458;2022-07-29T00:41:03;2.65;;;1.90;;
47659;SDS011;33403;43.608;1.458;2022-07-29T00:43:29;3.55;;;1.90;;
47659;SDS011;33403;43.608;1.458;2022-07-29T00:45:55;3.30;;;1.60;;
47659;SDS011;33403;43.608;1.458;2022-07-29T00:48:21;3.92;;;1.80;;
47659;SDS011;33403;43.608;1.458;2022-07-29T00:50:48;2.88;;;1.80;;
47659;SDS011;33403;43.608;1.458;2022-07-29T00:53:14;2.53;;;1.70;;
47659;SDS011;33403;43.608;1.458;2022-07-29T00:55:40;2.60;;;1.80;;
47659;SDS011;33403;43.608;1.458;2022-07-29T00:58:07;3.55;;;1.73;;
47659;SDS011;33403;43.608;1.458;2022-07-29T01:00:33;2.08;;;1.40;;
47659;SDS011;33403;43.608;1.458;2022-07-29T01:02:59;3.03;;;1.83;;
47659;SDS011;33403;43.608;1.458;2022-07-29T01:05:26;2.53;;;1.60;;
47659;SDS011;33403;43.608;1.458;2022-07-29T01:07:54;5.20;;;1.85;;
47659;SDS011;33403;43.608;1.458;2022-07-29T01:10:20;2.40;;;1.60;;
47659;SDS011;33403;43.608;1.458;2022-07-29T01:12:47;2.17;;;1.80;;
47659;SDS011;33403;43.608;1.458;2022-07-29T01:15:14;3.40;;;1.60;;
47659;SDS011;33403;43.608;1.458;2022-07-29T01:17:45;3.50;;;1.98;;
47659;SDS011;33403;43.608;1.458;2022-07-29T01:22:44;1.95;;;1.67;;
47659;SDS011;33403;43.608;1.458;2022-07-29T01:30:25;2.70;;;1.60;;
47659;SDS011;33403;43.608;1.458;2022-07-29T01:32:54;2.72;;;1.70;;
47659;SDS011;33403;43.608;1.458;2022-07-29T01:40:19;2.55;;;1.65;;
47659;SDS011;33403;43.608;1.458;2022-07-29T01:42:48;1.85;;;1.60;;
47659;SDS011;33403;43.608;1.458;2022-07-29T01:45:26;5.07;;;1.52;;
47659;SDS011;33403;43.608;1.458;2022-07-29T01:48:00;4.35;;;1.95;;
47659;SDS011;33403;43.608;1.458;2022-07-29T01:50:38;1.98;;;1.50;;
47659;SDS011;33403;43.608;1.458;2022-07-29T01:53:06;2.50;;;1.63;;
47659;SDS011;33403;43.608;1.458;2022-07-29T01:55:34;2.28;;;1.38;;
47659;SDS011;33403;43.608;1.458;2022-07-29T01:58:03;4.85;;;1.80;;
47659;SDS011;33403;43.608;1.458;2022-07-29T02:00:29;1.50;;;1.40;;
47659;SDS011;33403;43.608;1.458;2022-07-29T02:02:56;2.72;;;1.67;;
47659;SDS011;33403;43.608;1.458;2022-07-29T02:05:24;3.85;;;1.52;;
47659;SDS011;33403;43.608;1.458;2022-07-29T02:07:52;2.45;;;1.50;;
47659;SDS011;33403;43.608;1.458;2022-07-29T02:10:24;2.78;;;1.77;;
47659;SDS011;33403;43.608;1.458;2022-07-29T02:12:51;3.13;;;1.65;;
47659;SDS011;33403;43.608;1.458;2022-07-29T02:15:19;4.78;;;1.50;;
47659;SDS011;33403;43.608;1.458;2022-07-29T02:17:47;4.25;;;1.60;;
47659;SDS011;33403;43.608;1.458;2022-07-29T02:20:14;3.25;;;1.55;;
47659;SDS011;33403;43.608;1.458;2022-07-29T02:22:41;2.95;;;1.52;;
47659;SDS011;33403;43.608;1.458;2022-07-29T02:25:09;3.45;;;1.67;;
47659;SDS011;33403;43.608;1.458;2022-07-29T02:27:35;2.28;;;1.50;;
47659;SDS011;33403;43.608;1.458;2022-07-29T02:30:03;4.00;;;1.83;;
47659;SDS011;33403;43.608;1.458;2022-07-29T02:32:29;3.92;;;1.70;;
47659;SDS011;33403;43.608;1.458;2022-07-29T02:34:57;2.17;;;1.55;;
47659;SDS011;33403;43.608;1.458;2022-07-29T02:37:24;2.80;;;1.70;;
47659;SDS011;33403;43.608;1.458;2022-07-29T02:39:51;2.97;;;1.60;;
47659;SDS011;33403;43.608;1.458;2022-07-29T02:42:18;2.95;;;1.90;;
47659;SDS011;33403;43.608;1.458;2022-07-29T02:44:44;2.10;;;1.50;;
47659;SDS011;33403;43.608;1.458;2022-07-29T02:49:38;4.93;;;1.73;;
47659;SDS011;33403;43.608;1.458;2022-07-29T02:52:08;3.10;;;1.60;;
47659;SDS011;33403;43.608;1.458;2022-07-29T02:54:42;2.90;;;1.60;;
47659;SDS011;33403;43.608;1.458;2022-07-29T02:57:31;2.65;;;1.63;;
47659;SDS011;33403;43.608;1.458;2022-07-29T02:59:59;2.47;;;1.77;;
47659;SDS011;33403;43.608;1.458;2022-07-29T03:02:29;2.05;;;1.58;;
47659;SDS011;33403;43.608;1.458;2022-07-29T03:04:57;1.40;;;1.23;;
47659;SDS011;33403;43.608;1.458;2022-07-29T03:07:23;2.13;;;1.60;;
47659;SDS011;33403;43.608;1.458;2022-07-29T03:09:49;2.28;;;1.60;;
47659;SDS011;33403;43.608;1.458;2022-07-29T03:12:15;2.13;;;1.60;;
47659;SDS011;33403;43.608;1.458;2022-07-29T03:14:42;1.98;;;1.40;;
47659;SDS011;33403;43.608;1.458;2022-07-29T03:17:09;2.80;;;1.50;;
47659;SDS011;33403;43.608;1.458;2022-07-29T03:19:35;3.45;;;1.65;;
47659;SDS011;33403;43.608;1.458;2022-07-29T03:22:02;2.65;;;1.60;;
47659;SDS011;33403;43.608;1.458;2022-07-29T03:24:30;3.22;;;1.52;;
47659;SDS011;33403;43.608;1.458;2022-07-29T03:26:56;2.35;;;1.52;;
47659;SDS011;33403;43.608;1.458;2022-07-29T03:29:23;4.30;;;1.58;;
47659;SDS011;33403;43.608;1.458;2022-07-29T03:31:49;3.53;;;1.70;;
47659;SDS011;33403;43.608;1.458;2022-07-29T03:34:15;2.38;;;1.60;;
47659;SDS011;33403;43.608;1.458;2022-07-29T03:36:41;1.75;;;1.50;;
47659;SDS011;33403;43.608;1.458;2022-07-29T03:39:07;3.00;;;1.70;;
47659;SDS011;33403;43.608;1.458;2022-07-29T03:41:35;3.15;;;1.50;;
47659;SDS011;33403;43.608;1.458;2022-07-29T03:44:02;2.70;;;1.60;;
47659;SDS011;33403;43.608;1.458;2022-07-29T03:46:29;3.28;;;1.58;;
47659;SDS011;33403;43.608;1.458;2022-07-29T03:48:58;1.92;;;1.60;;
47659;SDS011;33403;43.608;1.458;2022-07-29T03:51:25;2.17;;;1.50;;
47659;SDS011;33403;43.608;1.458;2022-07-29T03:53:51;3.42;;;1.80;;
47659;SDS011;33403;43.608;1.458;2022-07-29T03:56:18;2.13;;;1.50;;
47659;SDS011;33403;43.608;1.458;2022-07-29T03:58:46;3.70;;;1.70;;
47659;SDS011;33403;43.608;1.458;2022-07-29T04:01:13;3.25;;;1.60;;
47659;SDS011;33403;43.608;1.458;2022-07-29T04:03:39;1.95;;;1.60;;
47659;SDS011;33403;43.608;1.458;2022-07-29T04:06:06;2.38;;;1.60;;
47659;SDS011;33403;43.608;1.458;2022-07-29T04:08:32;2.35;;;1.50;;
47659;SDS011;33403;43.608;1.458;2022-07-29T04:10:59;2.78;;;1.63;;
47659;SDS011;33403;43.608;1.458;2022-07-29T04:13:25;2.78;;;1.73;;
47659;SDS011;33403;43.608;1.458;2022-07-29T04:15:51;3.63;;;1.65;;
47659;SDS011;33403;43.608;1.458;2022-07-29T04:18:17;3.05;;;1.52;;
47659;SDS011;33403;43.608;1.458;2022-07-29T04:20:43;3.45;;;1.80;;
47659;SDS011;33403;43.608;1.458;2022-07-29T04:23:09;2.78;;;1.70;;
47659;SDS011;33403;43.608;1.458;2022-07-29T04:25:41;3.00;;;1.60;;
47659;SDS011;33403;43.608;1.458;2022-07-29T04:28:08;2.72;;;1.67;;
47659;SDS011;33403;43.608;1.458;2022-07-29T04:30:35;2.65;;;1.50;;
47659;SDS011;33403;43.608;1.458;2022-07-29T04:33:02;1.95;;;1.50;;
47659;SDS011;33403;43.608;1.458;2022-07-29T04:35:29;2.95;;;1.60;;
47659;SDS011;33403;43.608;1.458;2022-07-29T04:37:55;2.88;;;1.75;;
47659;SDS011;33403;43.608;1.458;2022-07-29T04:40:21;4.20;;;1.63;;
47659;SDS011;33403;43.608;1.458;2022-07-29T04:42:47;3.65;;;1.52;;
47659;SDS011;33403;43.608;1.458;2022-07-29T04:45:13;3.05;;;1.52;;
47659;SDS011;33403;43.608;1.458;2022-07-29T04:47:40;2.67;;;1.52;;
47659;SDS011;33403;43.608;1.458;2022-07-29T04:50:06;3.00;;;1.80;;
47659;SDS011;33403;43.608;1.458;2022-07-29T04:52:32;2.85;;;1.63;;
47659;SDS011;33403;43.608;1.458;2022-07-29T04:55:00;3.70;;;1.80;;
47659;SDS011;33403;43.608;1.458;2022-07-29T04:57:26;1.90;;;1.50;;
47659;SDS011;33403;43.608;1.458;2022-07-29T04:59:52;3.92;;;1.83;;
47659;SDS011;33403;43.608;1.458;2022-07-29T05:02:18;3.20;;;1.70;;
47659;SDS011;33403;43.608;1.458;2022-07-29T05:04:44;4.47;;;2.00;;
47659;SDS011;33403;43.608;1.458;2022-07-29T05:07:10;3.78;;;1.80;;
47659;SDS011;33403;43.608;1.458;2022-07-29T05:09:36;3.20;;;1.60;;
47659;SDS011;33403;43.608;1.458;2022-07-29T05:12:02;3.42;;;1.70;;
47659;SDS011;33403;43.608;1.458;2022-07-29T05:14:28;3.67;;;1.90;;
47659;SDS011;33403;43.608;1.458;2022-07-29T05:16:54;2.80;;;1.70;;
47659;SDS011;33403;43.608;1.458;2022-07-29T05:19:22;4.40;;;1.80;;
47659;SDS011;33403;43.608;1.458;2022-07-29T05:21:48;6.25;;;2.20;;
47659;SDS011;33403;43.608;1.458;2022-07-29T05:24:14;6.47;;;2.60;;
47659;SDS011;33403;43.608;1.458;2022-07-29T05:26:41;3.35;;;2.00;;
47659;SDS011;33403;43.608;1.458;2022-07-29T05:29:07;3.33;;;2.10;;
47659;SDS011;33403;43.608;1.458;2022-07-29T05:31:33;3.40;;;1.90;;
47659;SDS011;33403;43.608;1.458;2022-07-29T05:33:59;4.45;;;2.10;;
47659;SDS011;33403;43.608;1.458;2022-07-29T05:36:25;3.50;;;2.10;;
47659;SDS011;33403;43.608;1.458;2022-07-29T05:38:51;5.03;;;2.25;;
47659;SDS011;33403;43.608;1.458;2022-07-29T05:41:20;3.97;;;2.00;;
47659;SDS011;33403;43.608;1.458;2022-07-29T05:43:46;3.88;;;2.08;;
47659;SDS011;33403;43.608;1.458;2022-07-29T05:46:12;2.78;;;1.83;;
47659;SDS011;33403;43.608;1.458;2022-07-29T05:48:41;5.07;;;2.22;;
47659;SDS011;33403;43.608;1.458;2022-07-29T05:51:07;6.82;;;2.90;;
47659;SDS011;33403;43.608;1.458;2022-07-29T05:53:33;4.55;;;2.10;;
47659;SDS011;33403;43.608;1.458;2022-07-29T05:56:02;4.82;;;2.38;;
47659;SDS011;33403;43.608;1.458;2022-07-29T05:58:28;3.70;;;2.13;;
47659;SDS011;33403;43.608;1.458;2022-07-29T06:00:54;3.55;;;1.90;;
47659;SDS011;33403;43.608;1.458;2022-07-29T06:03:24;4.88;;;2.55;;
47659;SDS011;33403;43.608;1.458;2022-07-29T06:05:50;2.05;;;1.85;;
47659;SDS011;33403;43.608;1.458;2022-07-29T06:08:16;3.33;;;2.25;;
47659;SDS011;33403;43.608;1.458;2022-07-29T06:10:42;3.97;;;2.40;;
47659;SDS011;33403;43.608;1.458;2022-07-29T06:13:08;3.78;;;2.17;;
47659;SDS011;33403;43.608;1.458;2022-07-29T06:15:34;3.88;;;2.45;;
47659;SDS011;33403;43.608;1.458;2022-07-29T06:18:00;3.08;;;2.20;;
47659;SDS011;33403;43.608;1.458;2022-07-29T06:20:30;4.78;;;2.25;;
47659;SDS011;33403;43.608;1.458;2022-07-29T06:22:56;4.40;;;2.30;;
47659;SDS011;33403;43.608;1.458;2022-07-29T06:25:22;5.22;;;2.70;;
47659;SDS011;33403;43.608;1.458;2022-07-29T06:27:48;2.75;;;2.40;;
47659;SDS011;33403;43.608;1.458;2022-07-29T06:30:14;5.38;;;2.58;;
47659;SDS011;33403;43.608;1.458;2022-07-29T06:32:41;5.80;;;2.55;;
47659;SDS011;33403;43.608;1.458;2022-07-29T06:35:07;4.13;;;2.40;;
47659;SDS011;33403;43.608;1.458;2022-07-29T06:37:33;7.35;;;2.40;;
47659;SDS011;33403;43.608;1.458;2022-07-29T06:39:59;3.92;;;2.15;;
47659;SDS011;33403;43.608;1.458;2022-07-29T06:42:44;4.30;;;2.30;;
47659;SDS011;33403;43.608;1.458;2022-07-29T06:45:11;3.30;;;2.35;;
47659;SDS011;33403;43.608;1.458;2022-07-29T06:47:37;4.72;;;2.38;;
47659;SDS011;33403;43.608;1.458;2022-07-29T06:50:03;6.07;;;2.70;;
47659;SDS011;33403;43.608;1.458;2022-07-29T06:52:30;5.40;;;2.40;;
47659;SDS011;33403;43.608;1.458;2022-07-29T06:54:56;4.60;;;2.67;;
47659;SDS011;33403;43.608;1.458;2022-07-29T06:57:23;4.82;;;2.42;;
47659;SDS011;33403;43.608;1.458;2022-07-29T06:59:49;3.20;;;2.42;;
47659;SDS011;33403;43.608;1.458;2022-07-29T07:02:15;4.53;;;2.60;;
47659;SDS011;33403;43.608;1.458;2022-07-29T07:04:41;4.63;;;2.83;;
47659;SDS011;33403;43.608;1.458;2022-07-29T07:07:07;4.15;;;2.40;;
47659;SDS011;33403;43.608;1.458;2022-07-29T07:09:33;4.10;;;2.40;;
47659;SDS011;33403;43.608;1.458;2022-07-29T07:11:59;4.07;;;2.35;;
47659;SDS011;33403;43.608;1.458;2022-07-29T07:14:25;3.50;;;2.53;;
47659;SDS011;33403;43.608;1.458;2022-07-29T07:16:52;5.03;;;2.70;;
47659;SDS011;33403;43.608;1.458;2022-07-29T07:19:18;4.05;;;2.50;;
47659;SDS011;33403;43.608;1.458;2022-07-29T07:21:44;3.45;;;2.05;;
47659;SDS011;33403;43.608;1.458;2022-07-29T07:24:10;4.07;;;2.30;;
47659;SDS011;33403;43.608;1.458;2022-07-29T07:26:36;3.20;;;2.47;;
47659;SDS011;33403;43.608;1.458;2022-07-29T07:29:04;4.28;;;2.45;;
47659;SDS011;33403;43.608;1.458;2022-07-29T07:31:31;4.10;;;2.40;;
47659;SDS011;33403;43.608;1.458;2022-07-29T07:33:57;5.15;;;2.67;;
47659;SDS011;33403;43.608;1.458;2022-07-29T07:36:23;4.57;;;2.70;;
47659;SDS011;33403;43.608;1.458;2022-07-29T07:38:49;3.45;;;2.33;;
47659;SDS011;33403;43.608;1.458;2022-07-29T07:41:15;3.30;;;2.47;;
47659;SDS011;33403;43.608;1.458;2022-07-29T07:43:41;3.13;;;2.40;;
47659;SDS011;33403;43.608;1.458;2022-07-29T07:46:07;4.00;;;2.47;;
47659;SDS011;33403;43.608;1.458;2022-07-29T07:48:33;2.72;;;2.40;;
47659;SDS011;33403;43.608;1.458;2022-07-29T07:51:00;3.35;;;2.38;;
47659;SDS011;33403;43.608;1.458;2022-07-29T07:53:27;4.72;;;2.60;;
47659;SDS011;33403;43.608;1.458;2022-07-29T07:55:54;4.47;;;2.67;;
47659;SDS011;33403;43.608;1.458;2022-07-29T07:58:20;5.80;;;2.75;;
47659;SDS011;33403;43.608;1.458;2022-07-29T08:00:46;3.65;;;2.50;;
47659;SDS011;33403;43.608;1.458;2022-07-29T08:03:13;4.70;;;2.65;;
47659;SDS011;33403;43.608;1.458;2022-07-29T08:05:39;3.88;;;2.40;;
47659;SDS011;33403;43.608;1.458;2022-07-29T08:08:06;4.20;;;2.38;;
47659;SDS011;33403;43.608;1.458;2022-07-29T08:10:32;3.47;;;2.70;;
47659;SDS011;33403;43.608;1.458;2022-07-29T08:13:17;4.72;;;2.33;;
47659;SDS011;33403;43.608;1.458;2022-07-29T08:15:43;4.88;;;2.55;;
47659;SDS011;33403;43.608;1.458;2022-07-29T08:18:10;3.08;;;2.63;;
47659;SDS011;33403;43.608;1.458;2022-07-29T08:20:36;3.85;;;2.60;;
47659;SDS011;33403;43.608;1.458;2022-07-29T08:23:03;3.92;;;2.67;;
47659;SDS011;33403;43.608;1.458;2022-07-29T08:25:31;2.95;;;2.47;;
47659;SDS011;33403;43.608;1.458;2022-07-29T08:27:57;3.97;;;2.67;;
47659;SDS011;33403;43.608;1.458;2022-07-29T08:30:23;4.80;;;2.40;;
47659;SDS011;33403;43.608;1.458;2022-07-29T08:32:49;3.22;;;2.40;;
47659;SDS011;33403;43.608;1.458;2022-07-29T08:35:17;2.65;;;2.40;;
47659;SDS011;33403;43.608;1.458;2022-07-29T08:37:43;3.97;;;2.42;;
47659;SDS011;33403;43.608;1.458;2022-07-29T08:40:10;3.47;;;2.40;;
47659;SDS011;33403;43.608;1.458;2022-07-29T08:42:36;3.58;;;2.30;;
47659;SDS011;33403;43.608;1.458;2022-07-29T08:45:03;3.38;;;2.60;;
47659;SDS011;33403;43.608;1.458;2022-07-29T08:47:29;4.05;;;2.55;;
47659;SDS011;33403;43.608;1.458;2022-07-29T08:49:55;4.07;;;2.50;;
47659;SDS011;33403;43.608;1.458;2022-07-29T08:52:21;3.72;;;2.75;;
47659;SDS011;33403;43.608;1.458;2022-07-29T08:54:48;3.40;;;2.40;;
47659;SDS011;33403;43.608;1.458;2022-07-29T08:57:15;4.15;;;2.67;;
47659;SDS011;33403;43.608;1.458;2022-07-29T08:59:42;2.78;;;2.30;;
47659;SDS011;33403;43.608;1.458;2022-07-29T09:02:11;3.90;;;2.60;;
47659;SDS011;33403;43.608;1.458;2022-07-29T09:04:38;2.78;;;2.40;;
47659;SDS011;33403;43.608;1.458;2022-07-29T09:07:05;4.43;;;2.85;;
47659;SDS011;33403;43.608;1.458;2022-07-29T09:09:32;3.47;;;2.85;;
47659;SDS011;33403;43.608;1.458;2022-07-29T09:11:58;3.30;;;2.60;;
47659;SDS011;33403;43.608;1.458;2022-07-29T09:14:25;3.13;;;2.60;;
47659;SDS011;33403;43.608;1.458;2022-07-29T09:19:24;4.05;;;2.78;;
47659;SDS011;33403;43.608;1.458;2022-07-29T09:21:50;3.55;;;2.47;;
47659;SDS011;33403;43.608;1.458;2022-07-29T09:24:22;2.40;;;2.20;;
47659;SDS011;33403;43.608;1.458;2022-07-29T09:26:48;3.50;;;2.70;;
47659;SDS011;33403;43.608;1.458;2022-07-29T09:29:18;4.50;;;2.78;;
47659;SDS011;33403;43.608;1.458;2022-07-29T09:31:46;4.53;;;3.03;;
47659;SDS011;33403;43.608;1.458;2022-07-29T09:34:13;4.18;;;2.70;;
47659;SDS011;33403;43.608;1.458;2022-07-29T09:36:49;4.43;;;2.60;;
47659;SDS011;33403;43.608;1.458;2022-07-29T09:39:16;3.47;;;2.40;;
47659;SDS011;33403;43.608;1.458;2022-07-29T09:41:52;4.05;;;2.60;;
47659;SDS011;33403;43.608;1.458;2022-07-29T09:44:19;3.22;;;2.72;;
47659;SDS011;33403;43.608;1.458;2022-07-29T09:46:58;5.45;;;3.28;;
47659;SDS011;33403;43.608;1.458;2022-07-29T09:49:30;5.03;;;3.00;;
47659;SDS011;33403;43.608;1.458;2022-07-29T09:52:14;5.28;;;3.30;;
47659;SDS011;33403;43.608;1.458;2022-07-29T09:54:40;4.20;;;2.60;;
47659;SDS011;33403;43.608;1.458;2022-07-29T09:57:21;3.08;;;2.38;;
47659;SDS011;33403;43.608;1.458;2022-07-29T09:59:55;2.20;;;2.00;;
47659;SDS011;33403;43.608;1.458;2022-07-29T10:02:21;2.45;;;2.03;;
47659;SDS011;33403;43.608;1.458;2022-07-29T10:04:47;3.17;;;2.38;;
47659;SDS011;33403;43.608;1.458;2022-07-29T10:07:13;2.80;;;2.22;;
47659;SDS011;33403;43.608;1.458;2022-07-29T10:09:39;2.30;;;2.00;;
47659;SDS011;33403;43.608;1.458;2022-07-29T10:12:15;3.75;;;2.00;;
47659;SDS011;33403;43.608;1.458;2022-07-29T10:14:41;2.88;;;1.98;;
47659;SDS011;33403;43.608;1.458;2022-07-29T10:17:08;2.88;;;1.60;;
47659;SDS011;33403;43.608;1.458;2022-07-29T10:19:35;1.88;;;1.70;;
47659;SDS011;33403;43.608;1.458;2022-07-29T10:22:02;4.53;;;2.00;;
47659;SDS011;33403;43.608;1.458;2022-07-29T10:24:29;4.90;;;1.98;;
47659;SDS011;33403;43.608;1.458;2022-07-29T10:26:57;1.88;;;1.77;;
47659;SDS011;33403;43.608;1.458;2022-07-29T10:29:23;2.90;;;1.75;;
47659;SDS011;33403;43.608;1.458;2022-07-29T10:31:57;3.22;;;2.00;;
47659;SDS011;33403;43.608;1.458;2022-07-29T10:37:01;4.07;;;1.60;;
47659;SDS011;33403;43.608;1.458;2022-07-29T10:42:05;6.28;;;2.30;;
47659;SDS011;33403;43.608;1.458;2022-07-29T10:44:32;2.83;;;1.80;;
47659;SDS011;33403;43.608;1.458;2022-07-29T10:46:58;3.47;;;2.05;;
47659;SDS011;33403;43.608;1.458;2022-07-29T10:49:25;2.50;;;2.10;;
47659;SDS011;33403;43.608;1.458;2022-07-29T10:54:18;4.30;;;2.35;;
47659;SDS011;33403;43.608;1.458;2022-07-29T10:56:44;2.92;;;2.03;;
47659;SDS011;33403;43.608;1.458;2022-07-29T11:01:48;3.97;;;2.13;;
47659;SDS011;33403;43.608;1.458;2022-07-29T11:04:15;2.72;;;2.20;;
47659;SDS011;33403;43.608;1.458;2022-07-29T11:09:37;4.10;;;1.92;;
47659;SDS011;33403;43.608;1.458;2022-07-29T11:12:04;2.75;;;2.08;;
47659;SDS011;33403;43.608;1.458;2022-07-29T11:14:58;2.88;;;2.00;;
47659;SDS011;33403;43.608;1.458;2022-07-29T11:17:27;4.70;;;1.88;;
47659;SDS011;33403;43.608;1.458;2022-07-29T11:22:37;2.47;;;2.17;;
47659;SDS011;33403;43.608;1.458;2022-07-29T11:25:13;2.42;;;1.77;;
47659;SDS011;33403;43.608;1.458;2022-07-29T11:27:39;4.75;;;2.28;;
47659;SDS011;33403;43.608;1.458;2022-07-29T11:30:06;4.15;;;2.20;;
47659;SDS011;33403;43.608;1.458;2022-07-29T11:32:38;2.95;;;2.10;;
47659;SDS011;33403;43.608;1.458;2022-07-29T11:37:36;3.55;;;2.55;;
47659;SDS011;33403;43.608;1.458;2022-07-29T11:47:40;3.55;;;2.20;;
47659;SDS011;33403;43.608;1.458;2022-07-29T11:50:07;3.20;;;2.08;;
47659;SDS011;33403;43.608;1.458;2022-07-29T11:52:34;3.22;;;1.90;;
47659;SDS011;33403;43.608;1.458;2022-07-29T11:55:03;4.00;;;2.20;;
47659;SDS011;33403;43.608;1.458;2022-07-29T11:57:30;3.70;;;2.05;;
47659;SDS011;33403;43.608;1.458;2022-07-29T11:59:57;4.05;;;1.90;;
47659;SDS011;33403;43.608;1.458;2022-07-29T12:02:23;3.03;;;1.95;;
47659;SDS011;33403;43.608;1.458;2022-07-29T12:07:15;2.30;;;2.10;;
47659;SDS011;33403;43.608;1.458;2022-07-29T12:09:51;2.67;;;1.75;;
47659;SDS011;33403;43.608;1.458;2022-07-29T12:12:18;2.55;;;2.00;;
47659;SDS011;33403;43.608;1.458;2022-07-29T12:14:44;1.92;;;1.80;;
47659;SDS011;33403;43.608;1.458;2022-07-29T12:17:30;2.40;;;1.90;;
47659;SDS011;33403;43.608;1.458;2022-07-29T12:19:57;2.40;;;1.85;;
47659;SDS011;33403;43.608;1.458;2022-07-29T12:22:34;5.13;;;1.90;;
47659;SDS011;33403;43.608;1.458;2022-07-29T12:27:31;3.85;;;2.20;;
47659;SDS011;33403;43.608;1.458;2022-07-29T12:30:08;2.88;;;2.20;;
47659;SDS011;33403;43.608;1.458;2022-07-29T12:32:35;2.60;;;2.10;;
47659;SDS011;33403;43.608;1.458;2022-07-29T12:35:02;2.67;;;2.00;;
47659;SDS011;33403;43.608;1.458;2022-07-29T12:37:28;3.28;;;2.10;;
47659;SDS011;33403;43.608;1.458;2022-07-29T12:39:54;2.55;;;1.90;;
47659;SDS011;33403;43.608;1.458;2022-07-29T12:42:20;2.20;;;1.70;;
47659;SDS011;33403;43.608;1.458;2022-07-29T12:44:48;1.80;;;1.70;;
47659;SDS011;33403;43.608;1.458;2022-07-29T12:47:14;3.47;;;1.92;;
47659;SDS011;33403;43.608;1.458;2022-07-29T12:49:40;2.40;;;2.10;;
47659;SDS011;33403;43.608;1.458;2022-07-29T12:54:51;2.78;;;1.98;;
47659;SDS011;33403;43.608;1.458;2022-07-29T12:57:17;3.20;;;1.95;;
47659;SDS011;33403;43.608;1.458;2022-07-29T12:59:43;3.92;;;2.30;;
47659;SDS011;33403;43.608;1.458;2022-07-29T13:02:22;3.17;;;1.88;;
47659;SDS011;33403;43.608;1.458;2022-07-29T13:05:00;2.28;;;1.90;;
47659;SDS011;33403;43.608;1.458;2022-07-29T13:07:28;3.97;;;2.20;;
47659;SDS011;33403;43.608;1.458;2022-07-29T13:09:55;2.92;;;2.00;;
47659;SDS011;33403;43.608;1.458;2022-07-29T13:12:34;2.90;;;2.10;;
47659;SDS011;33403;43.608;1.458;2022-07-29T13:15:11;3.28;;;2.10;;
47659;SDS011;33403;43.608;1.458;2022-07-29T13:17:41;2.70;;;2.03;;
47659;SDS011;33403;43.608;1.458;2022-07-29T13:20:09;2.28;;;1.90;;
47659;SDS011;33403;43.608;1.458;2022-07-29T13:22:37;2.50;;;2.10;;
47659;SDS011;33403;43.608;1.458;2022-07-29T13:25:04;2.35;;;2.10;;
47659;SDS011;33403;43.608;1.458;2022-07-29T13:27:34;2.40;;;2.10;;
47659;SDS011;33403;43.608;1.458;2022-07-29T13:30:05;3.00;;;1.92;;
47659;SDS011;33403;43.608;1.458;2022-07-29T13:32:32;4.65;;;2.20;;
47659;SDS011;33403;43.608;1.458;2022-07-29T13:35:03;2.83;;;1.90;;
47659;SDS011;33403;43.608;1.458;2022-07-29T13:37:30;2.20;;;2.00;;
47659;SDS011;33403;43.608;1.458;2022-07-29T13:39:57;3.83;;;2.13;;
47659;SDS011;33403;43.608;1.458;2022-07-29T13:42:24;2.35;;;1.90;;
47659;SDS011;33403;43.608;1.458;2022-07-29T13:44:51;2.85;;;1.95;;
47659;SDS011;33403;43.608;1.458;2022-07-29T13:47:18;2.72;;;1.92;;
47659;SDS011;33403;43.608;1.458;2022-07-29T13:49:44;2.92;;;1.70;;
47659;SDS011;33403;43.608;1.458;2022-07-29T13:52:10;2.50;;;1.80;;
47659;SDS011;33403;43.608;1.458;2022-07-29T13:54:37;1.88;;;1.60;;
47659;SDS011;33403;43.608;1.458;2022-07-29T13:57:06;3.13;;;1.90;;
47659;SDS011;33403;43.608;1.458;2022-07-29T13:59:32;2.17;;;2.00;;
47659;SDS011;33403;43.608;1.458;2022-07-29T14:01:59;2.00;;;1.80;;
47659;SDS011;33403;43.608;1.458;2022-07-29T14:04:25;2.65;;;1.60;;
47659;SDS011;33403;43.608;1.458;2022-07-29T14:06:51;2.28;;;1.85;;
47659;SDS011;33403;43.608;1.458;2022-07-29T14:09:17;3.05;;;1.75;;
47659;SDS011;33403;43.608;1.458;2022-07-29T14:11:43;3.47;;;1.77;;
47659;SDS011;33403;43.608;1.458;2022-07-29T14:14:10;2.63;;;1.70;;
47659;SDS011;33403;43.608;1.458;2022-07-29T14:16:37;3.53;;;1.98;;
47659;SDS011;33403;43.608;1.458;2022-07-29T14:19:03;2.33;;;1.85;;
47659;SDS011;33403;43.608;1.458;2022-07-29T14:21:29;2.90;;;2.00;;
47659;SDS011;33403;43.608;1.458;2022-07-29T14:23:55;3.13;;;2.10;;
47659;SDS011;33403;43.608;1.458;2022-07-29T14:26:21;2.92;;;2.17;;
47659;SDS011;33403;43.608;1.458;2022-07-29T14:28:48;3.50;;;2.08;;
47659;SDS011;33403;43.608;1.458;2022-07-29T14:31:14;4.00;;;2.08;;
47659;SDS011;33403;43.608;1.458;2022-07-29T14:33:40;2.20;;;1.88;;
47659;SDS011;33403;43.608;1.458;2022-07-29T14:36:07;2.72;;;2.10;;
47659;SDS011;33403;43.608;1.458;2022-07-29T14:38:34;2.45;;;1.90;;
47659;SDS011;33403;43.608;1.458;2022-07-29T14:41:00;2.20;;;1.90;;
47659;SDS011;33403;43.608;1.458;2022-07-29T14:43:26;2.78;;;1.60;;
47659;SDS011;33403;43.608;1.458;2022-07-29T14:45:52;2.70;;;2.15;;
47659;SDS011;33403;43.608;1.458;2022-07-29T14:48:18;3.55;;;2.40;;
47659;SDS011;33403;43.608;1.458;2022-07-29T14:50:44;2.15;;;1.88;;
47659;SDS011;33403;43.608;1.458;2022-07-29T14:53:10;3.10;;;2.22;;
47659;SDS011;33403;43.608;1.458;2022-07-29T14:55:38;2.35;;;1.63;;
47659;SDS011;33403;43.608;1.458;2022-07-29T14:58:04;4.28;;;1.90;;
47659;SDS011;33403;43.608;1.458;2022-07-29T15:00:30;2.13;;;1.92;;
47659;SDS011;33403;43.608;1.458;2022-07-29T15:02:59;2.15;;;1.83;;
47659;SDS011;33403;43.608;1.458;2022-07-29T15:05:26;2.63;;;1.77;;
47659;SDS011;33403;43.608;1.458;2022-07-29T15:07:52;2.50;;;1.77;;
47659;SDS011;33403;43.608;1.458;2022-07-29T15:10:18;2.78;;;1.90;;
47659;SDS011;33403;43.608;1.458;2022-07-29T15:12:44;2.85;;;2.00;;
47659;SDS011;33403;43.608;1.458;2022-07-29T15:15:10;3.38;;;2.05;;
47659;SDS011;33403;43.608;1.458;2022-07-29T15:17:36;3.28;;;1.80;;
47659;SDS011;33403;43.608;1.458;2022-07-29T15:20:02;3.17;;;1.80;;
47659;SDS011;33403;43.608;1.458;2022-07-29T15:22:29;2.03;;;1.80;;
47659;SDS011;33403;43.608;1.458;2022-07-29T15:24:54;2.08;;;1.80;;
47659;SDS011;33403;43.608;1.458;2022-07-29T15:27:21;2.80;;;1.80;;
47659;SDS011;33403;43.608;1.458;2022-07-29T15:29:47;2.00;;;1.80;;
47659;SDS011;33403;43.608;1.458;2022-07-29T15:32:13;2.33;;;1.95;;
47659;SDS011;33403;43.608;1.458;2022-07-29T15:34:39;2.75;;;1.80;;
47659;SDS011;33403;43.608;1.458;2022-07-29T15:37:05;3.88;;;1.80;;
47659;SDS011;33403;43.608;1.458;2022-07-29T15:39:31;3.17;;;2.00;;
47659;SDS011;33403;43.608;1.458;2022-07-29T15:41:57;2.47;;;1.98;;